Accueil
METAR-TAF:

METAR-TAF

Aéroports :

Burgos, Espagne

Aéroport de Burgos

latitude: 42-22N, longitude: 003-38W, altitude: 894 m

Observation

Le bulletin a été fait il y a 45 minutes, à 08:30 UTC
Vent 14 kt de nord-est, variant entre nord/nord-est et est
Température 18°C
Humidité 64%
Pression 1025 hPa
Visibilité 10 km ou plus
Nuages fragmentés à une hauteur de 2100 ft

METAR: LEBG 190830Z 05014KT 020V080 9999 BKN021 18/11 Q1025

Heure: 11:15 (09:15 UTC)

Prévision

Le bulletin a été fait il y a 1 heure et 15 minutes, à 08:00 UTC
Prévision valable du 19 à 09 UTC au 19 à 18 UTC
Vent 12 kt de nord-est
Visibilité 10 km ou plus
Quelques nuages à une hauteur de 1000 ft

TAF: LEBG 190800Z 1909/1918 05012KT 9999 FEW010

Observations et prévisions météorologiques de plus de 4000 aéroports (messages METAR et TAF).

Les stations disponibles sont représentées par des disques jaunes et rouges sur la carte.

Passer la souris dessus pour voir le nom de la station.

Cliquer dessus pour voir les observations et prévisions météorologiques.

Pour changer de carte: cliquez sur les boutons verts avec une croix noire pour zoomer, sur le bouton vert avec un tiret pour effectuer un zoom arrière, ou sur les flèches vertes pour les cartes adjacentes.


METAR-TAF: